Time;durP1;ratioP1;P1;durP2;ratioP2;P2;SDS_P1;SDS_P2;PMS_P1;PMS_P2;Temp;Humidity;BMP_temperature;BMP_pressure;BME280_temperature;BME280_humidity;BME280_pressure;Samples;Min_cycle;Max_cycle;Signal;HPM_P1;HPM_P2
2022/08/08 00:00:13;;;;;;;3.10;2.80;;;14.50;99.90;;;;;;4989198;28;20125;-52
2022/08/08 00:02:49;;;;;;;3.38;3.08;;;14.50;99.90;;;;;;4953144;28;20134;-51
2022/08/08 00:05:43;;;;;;;2.57;2.37;;;14.50;99.90;;;;;;4989479;28;20518;-53
2022/08/08 00:08:28;;;;;;;3.30;3.00;;;14.50;99.90;;;;;;4978947;28;20306;-50
2022/08/08 00:11:15;;;;;;;2.95;2.70;;;14.50;99.90;;;;;;4973584;28;20080;-53
2022/08/08 00:14:11;;;;;;;3.67;3.40;;;14.50;99.90;;;;;;5051291;28;20052;-50
2022/08/08 00:16:50;;;;;;;2.10;2.00;;;14.50;99.90;;;;;;5086981;28;20047;-54
2022/08/08 00:19:28;;;;;;;3.13;2.80;;;14.40;99.90;;;;;;5072454;28;20067;-50
2022/08/08 00:22:09;;;;;;;2.45;2.35;;;14.50;99.90;;;;;;5082346;28;20044;-50
2022/08/08 00:24:47;;;;;;;1.85;1.40;;;14.50;99.90;;;;;;5089912;28;20187;-53
2022/08/08 00:27:15;;;;;;;1.35;1.25;;;14.30;99.90;;;;;;5078164;28;20470;-50
2022/08/08 00:29:54;;;;;;;2.45;2.25;;;14.20;99.90;;;;;;5071096;28;20128;-54
2022/08/08 00:32:27;;;;;;;2.50;2.40;;;14.20;99.90;;;;;;5083720;28;20493;-52
2022/08/08 00:35:28;;;;;;;2.30;2.15;;;14.10;99.90;;;;;;5087504;28;20124;-52
2022/08/08 00:38:19;;;;;;;2.33;2.22;;;14.10;99.90;;;;;;5023125;28;20132;-54
2022/08/08 00:41:05;;;;;;;3.40;2.40;;;14.10;99.90;;;;;;5071138;28;20076;-51
2022/08/08 00:43:48;;;;;;;1.73;1.63;;;14.00;99.90;;;;;;5070788;28;20036;-54
2022/08/08 00:46:51;;;;;;;2.22;2.00;;;13.80;99.90;;;;;;5072313;28;20067;-51
2022/08/08 00:49:32;;;;;;;1.10;1.00;;;13.70;99.90;;;;;;5086880;28;20050;-52
2022/08/08 00:52:26;;;;;;;2.28;2.15;;;13.60;99.90;;;;;;5079349;28;20032;-51
2022/08/08 00:55:23;;;;;;;2.97;2.78;;;13.60;99.90;;;;;;5074986;28;20033;-50
2022/08/08 00:58:07;;;;;;;3.75;3.45;;;13.50;99.90;;;;;;5083404;28;20047;-50
2022/08/08 01:01:00;;;;;;;3.35;2.42;;;13.50;99.90;;;;;;5090741;28;20048;-49
2022/08/08 01:04:01;;;;;;;4.45;3.85;;;13.40;99.90;;;;;;5074631;28;20052;-53
2022/08/08 01:07:05;;;;;;;5.25;4.85;;;13.40;99.90;;;;;;4988305;28;20146;-47
2022/08/08 01:10:05;;;;;;;48.35;9.77;;;13.30;99.90;;;;;;5089153;28;20116;-50
2022/08/08 01:13:09;;;;;;;5.63;5.22;;;13.30;99.90;;;;;;5083440;28;20042;-51
2022/08/08 01:16:03;;;;;;;4.38;3.97;;;13.10;99.90;;;;;;5070852;28;20055;-50
2022/08/08 01:18:59;;;;;;;1.98;1.88;;;13.00;99.90;;;;;;5088360;28;20079;-49
2022/08/08 01:21:50;;;;;;;2.80;2.20;;;13.00;99.90;;;;;;5083249;28;20405;-49
2022/08/08 01:24:43;;;;;;;3.65;3.42;;;13.10;99.90;;;;;;5090075;28;20118;-49
2022/08/08 01:27:38;;;;;;;3.17;2.97;;;13.20;99.90;;;;;;5084310;28;20501;-51
2022/08/08 01:30:50;;;;;;;3.00;2.80;;;13.20;99.90;;;;;;5071466;28;20044;-54
2022/08/08 01:33:34;;;;;;;1.40;1.30;;;13.30;99.90;;;;;;5052764;28;20044;-51
2022/08/08 01:36:34;;;;;;;2.97;2.78;;;13.30;99.90;;;;;;5069582;28;20083;-51
2022/08/08 01:39:40;;;;;;;4.57;3.08;;;13.20;99.90;;;;;;5089474;28;20043;-53
2022/08/08 01:42:08;;;;;;;3.53;3.20;;;13.10;99.90;;;;;;5085241;28;20052;-50
2022/08/08 01:44:58;;;;;;;3.92;3.50;;;13.10;99.90;;;;;;5077422;28;20089;-52
2022/08/08 01:47:47;;;;;;;3.22;3.03;;;13.10;99.90;;;;;;5075439;28;20081;-51
2022/08/08 01:50:28;;;;;;;3.95;3.38;;;13.20;99.90;;;;;;5072338;28;20047;-52
2022/08/08 01:53:08;;;;;;;1.52;1.42;;;13.20;99.90;;;;;;5079992;28;20102;-49
2022/08/08 01:55:52;;;;;;;1.92;1.75;;;13.20;99.90;;;;;;5070767;28;20486;-53
2022/08/08 01:58:32;;;;;;;4.25;2.20;;;13.10;99.90;;;;;;5072913;28;20040;-49
2022/08/08 02:01:16;;;;;;;5.57;3.15;;;13.00;99.90;;;;;;5069921;28;20054;-53
2022/08/08 02:04:08;;;;;;;7.50;5.50;;;13.00;99.90;;;;;;5073638;28;20058;-51
2022/08/08 02:06:41;;;;;;;2.60;2.40;;;13.00;99.90;;;;;;5069742;28;20055;-48
2022/08/08 02:09:25;;;;;;;3.90;2.95;;;13.10;99.90;;;;;;5086935;28;20119;-48
2022/08/08 02:11:51;;;;;;;2.70;2.50;;;13.10;99.90;;;;;;5088604;28;20036;-52
2022/08/08 02:14:35;;;;;;;4.18;3.78;;;13.10;99.90;;;;;;5073815;28;20058;-49
2022/08/08 02:17:21;;;;;;;2.88;2.63;;;13.10;99.90;;;;;;5089946;28;20036;-53
2022/08/08 02:20:00;;;;;;;4.60;2.58;;;13.10;99.90;;;;;;5069706;28;20041;-50
2022/08/08 02:22:49;;;;;;;3.97;3.67;;;13.10;99.90;;;;;;5070883;28;20074;-50
2022/08/08 02:25:35;;;;;;;3.10;2.80;;;13.20;99.90;;;;;;5062802;28;20048;-53
2022/08/08 02:28:20;;;;;;;4.07;2.72;;;13.20;99.90;;;;;;5069545;28;20502;-49
2022/08/08 02:31:23;;;;;;;4.18;3.08;;;13.20;99.90;;;;;;5070169;28;20052;-49
2022/08/08 02:34:09;;;;;;;3.35;3.15;;;13.30;99.90;;;;;;5074299;28;20062;-51
2022/08/08 02:36:50;;;;;;;3.00;2.80;;;13.30;99.90;;;;;;5072980;28;20098;-53
2022/08/08 02:39:34;;;;;;;1.90;1.80;;;13.30;99.90;;;;;;5086158;28;20051;-50
2022/08/08 02:42:38;;;;;;;3.92;2.55;;;13.20;99.90;;;;;;5093299;28;20119;-54
2022/08/08 02:45:12;;;;;;;2.70;2.50;;;13.20;99.90;;;;;;4970524;28;20085;-53
2022/08/08 02:47:58;;;;;;;3.60;2.13;;;13.20;99.90;;;;;;5057858;28;20365;-53
2022/08/08 02:51:01;;;;;;;2.90;2.63;;;13.20;99.90;;;;;;5073244;28;20051;-53
2022/08/08 02:53:48;;;;;;;2.30;2.20;;;13.20;99.90;;;;;;5083725;28;20062;-49
2022/08/08 02:56:35;;;;;;;2.80;2.60;;;13.30;99.90;;;;;;5075414;28;20071;-49
2022/08/08 02:59:03;;;;;;;3.42;2.42;;;13.20;99.90;;;;;;5085076;28;20044;-51
2022/08/08 03:01:31;;;;;;;3.80;2.58;;;13.20;99.90;;;;;;5092357;28;20405;-53
2022/08/08 03:04:00;;;;;;;3.05;2.75;;;13.20;99.90;;;;;;5083588;28;20373;-51
2022/08/08 03:07:03;;;;;;;4.80;3.22;;;13.20;99.90;;;;;;5091116;28;20042;-51
2022/08/08 03:09:50;;;;;;;4.63;2.85;;;13.00;99.90;;;;;;5092884;28;20081;-49
2022/08/08 03:12:37;;;;;;;3.03;2.75;;;12.80;99.90;;;;;;5093058;28;20036;-53
2022/08/08 03:15:20;;;;;;;4.25;3.95;;;12.70;99.90;;;;;;5079074;28;20071;-53
2022/08/08 03:18:19;;;;;;;4.53;2.83;;;12.70;99.90;;;;;;5092500;28;20502;-50
2022/08/08 03:20:46;;;;;;;3.70;3.20;;;12.60;99.90;;;;;;5057887;28;20041;-50
2022/08/08 03:23:12;;;;;;;3.58;2.88;;;12.70;99.90;;;;;;5072632;28;20116;-52
2022/08/08 03:25:38;;;;;;;5.15;3.05;;;12.70;99.90;;;;;;5073889;28;20558;-48
2022/08/08 03:28:11;;;;;;;2.50;2.40;;;12.70;99.90;;;;;;5075524;28;20078;-54
2022/08/08 03:30:37;;;;;;;1.88;1.50;;;12.70;99.90;;;;;;5078122;28;20045;-50
2022/08/08 03:33:17;;;;;;;1.88;1.10;;;12.70;99.90;;;;;;5072256;28;20240;-49
2022/08/08 03:35:45;;;;;;;1.10;1.00;;;12.60;99.90;;;;;;5086323;28;20036;-50
2022/08/08 03:38:12;;;;;;;1.27;0.90;;;12.50;99.90;;;;;;5090390;28;20096;-50
2022/08/08 03:40:37;;;;;;;0.70;0.70;;;12.50;99.90;;;;;;5080544;28;20052;-50
2022/08/08 03:43:05;;;;;;;0.80;0.77;;;12.40;99.90;;;;;;5070764;28;20059;-52
2022/08/08 03:45:31;;;;;;;0.50;0.50;;;12.30;99.90;;;;;;5083001;28;20054;-54
2022/08/08 03:47:58;;;;;;;2.35;0.73;;;12.40;99.90;;;;;;5090587;28;20032;-52
2022/08/08 03:50:25;;;;;;;0.80;0.52;;;12.40;99.90;;;;;;5083211;28;20133;-50
2022/08/08 03:52:52;;;;;;;1.85;0.47;;;12.40;99.90;;;;;;5071860;28;20079;-52
2022/08/08 03:55:19;;;;;;;0.70;0.60;;;12.40;99.90;;;;;;5079116;28;20044;-49
2022/08/08 03:57:53;;;;;;;0.88;0.88;;;12.40;99.90;;;;;;5089749;28;20405;-52
2022/08/08 04:00:24;;;;;;;1.80;1.02;;;12.40;99.90;;;;;;5084662;28;20474;-51
2022/08/08 04:03:01;;;;;;;1.85;1.20;;;12.40;99.90;;;;;;5082880;28;20047;-50
2022/08/08 04:05:36;;;;;;;0.75;0.68;;;12.40;99.90;;;;;;5084991;28;20378;-48
2022/08/08 04:08:05;;;;;;;1.65;0.80;;;12.40;99.90;;;;;;5072165;28;20048;-52
2022/08/08 04:10:31;;;;;;;5.88;0.88;;;12.40;99.90;;;;;;5066389;28;20044;-51
2022/08/08 04:12:57;;;;;;;0.90;0.50;;;12.30;99.90;;;;;;5071705;28;20044;-52
2022/08/08 04:15:23;;;;;;;1.77;0.82;;;12.20;99.90;;;;;;5086321;28;20493;-50
2022/08/08 04:17:49;;;;;;;3.10;1.38;;;12.20;99.90;;;;;;5072030;28;20035;-52
2022/08/08 04:20:14;;;;;;;2.35;0.68;;;12.10;99.90;;;;;;5074954;28;20072;-52
2022/08/08 04:22:40;;;;;;;1.20;0.70;;;12.10;99.90;;;;;;5084949;28;20033;-53
2022/08/08 04:25:07;;;;;;;1.13;1.02;;;12.10;99.90;;;;;;5072115;28;20309;-48
2022/08/08 04:27:33;;;;;;;1.23;0.75;;;12.10;99.90;;;;;;5090652;28;20505;-48
2022/08/08 04:30:00;;;;;;;;;;;12.10;99.90;;;;;;5090655;28;20119;-53
2022/08/08 04:32:25;;;;;;;0.50;0.30;;;12.10;99.90;;;;;;5056366;28;20301;-48
2022/08/08 04:34:51;;;;;;;2.08;0.45;;;12.10;99.90;;;;;;5091132;28;20103;-48
2022/08/08 04:37:17;;;;;;;0.77;0.63;;;12.10;99.90;;;;;;5073062;28;20047;-51
2022/08/08 04:39:42;;;;;;;1.02;0.60;;;12.20;99.90;;;;;;5076112;28;20040;-50
2022/08/08 04:42:08;;;;;;;0.73;0.70;;;12.20;99.90;;;;;;5089397;28;20496;-48
2022/08/08 04:44:33;;;;;;;1.05;1.05;;;12.20;99.90;;;;;;5088393;28;20028;-51
2022/08/08 04:46:59;;;;;;;1.13;1.00;;;12.30;99.90;;;;;;5076344;28;20382;-49
2022/08/08 04:49:25;;;;;;;1.30;1.10;;;12.40;99.90;;;;;;5089876;28;20042;-47
2022/08/08 04:51:50;;;;;;;1.20;0.90;;;12.40;99.90;;;;;;5071901;28;20036;-48
2022/08/08 04:54:16;;;;;;;1.20;1.10;;;12.40;99.90;;;;;;5076710;28;20044;-49
2022/08/08 04:56:41;;;;;;;1.40;1.00;;;12.40;99.90;;;;;;5081357;28;20278;-52
2022/08/08 04:59:07;;;;;;;1.40;1.23;;;12.40;99.90;;;;;;5090573;28;20126;-52
2022/08/08 05:01:33;;;;;;;0.80;0.80;;;12.40;99.90;;;;;;5074435;28;20052;-54
2022/08/08 05:03:58;;;;;;;1.33;1.23;;;12.50;99.90;;;;;;5089218;28;20040;-48
2022/08/08 05:06:24;;;;;;;2.88;1.80;;;12.50;99.90;;;;;;5074667;28;20032;-49
2022/08/08 05:08:50;;;;;;;1.75;1.65;;;12.60;99.90;;;;;;5070586;28;20071;-51
2022/08/08 05:11:15;;;;;;;1.50;1.40;;;12.60;99.90;;;;;;5084514;28;20036;-50
2022/08/08 05:13:42;;;;;;;3.25;2.15;;;12.70;99.90;;;;;;5089213;28;20486;-48
2022/08/08 05:16:09;;;;;;;3.13;2.92;;;12.80;99.90;;;;;;5078294;28;20459;-51
2022/08/08 05:18:35;;;;;;;3.47;3.05;;;12.80;99.90;;;;;;5071408;28;20075;-50
2022/08/08 05:21:07;;;;;;;5.18;3.55;;;12.90;99.90;;;;;;5087754;28;20085;-48
2022/08/08 05:23:33;;;;;;;4.50;4.20;;;13.00;99.90;;;;;;5090739;28;20078;-53
2022/08/08 05:25:59;;;;;;;4.85;4.45;;;13.10;99.90;;;;;;5073938;28;20076;-51
2022/08/08 05:28:24;;;;;;;5.88;5.38;;;13.20;99.90;;;;;;5052966;28;20036;-50
2022/08/08 05:30:50;;;;;;;6.40;5.00;;;13.30;99.90;;;;;;5071848;28;20044;-52
2022/08/08 05:33:16;;;;;;;6.50;5.88;;;13.50;99.90;;;;;;5070145;28;20036;-51
2022/08/08 05:35:43;;;;;;;6.53;5.65;;;13.60;99.90;;;;;;5086686;28;20040;-47
2022/08/08 05:38:13;;;;;;;6.05;5.20;;;13.70;99.90;;;;;;5076829;28;20098;-52
2022/08/08 05:40:45;;;;;;;6.15;5.55;;;13.80;99.90;;;;;;5076704;28;20079;-49
2022/08/08 05:43:23;;;;;;;5.75;5.22;;;13.90;99.90;;;;;;5069386;28;20327;-49
2022/08/08 05:45:49;;;;;;;6.75;5.10;;;14.00;99.90;;;;;;5082731;28;20116;-51
2022/08/08 05:48:16;;;;;;;6.82;4.88;;;14.10;99.90;;;;;;5076597;28;20374;-50
2022/08/08 05:50:42;;;;;;;7.53;5.55;;;14.20;99.90;;;;;;5086439;28;20404;-50
2022/08/08 05:53:08;;;;;;;9.13;5.88;;;14.30;99.90;;;;;;5084647;28;20063;-49
2022/08/08 05:55:35;;;;;;;5.10;4.60;;;14.40;99.90;;;;;;5077356;28;20044;-50
2022/08/08 05:58:02;;;;;;;9.73;5.43;;;14.50;99.90;;;;;;5070049;28;20067;-53
2022/08/08 06:00:31;;;;;;;5.75;4.65;;;14.60;99.90;;;;;;5090382;28;20516;-49
2022/08/08 06:03:12;;;;;;;11.50;5.70;;;14.70;99.90;;;;;;5072365;28;20044;-47
2022/08/08 06:05:54;;;;;;;7.68;5.03;;;14.80;99.90;;;;;;5070884;28;20033;-50
2022/08/08 06:08:42;;;;;;;5.93;4.53;;;15.00;99.90;;;;;;5080489;28;20102;-50
2022/08/08 06:11:09;;;;;;;7.63;4.55;;;15.00;99.90;;;;;;5078466;28;20048;-47
2022/08/08 06:13:34;;;;;;;4.50;4.10;;;15.20;99.90;;;;;;5081265;28;20533;-52
2022/08/08 06:16:00;;;;;;;5.82;4.28;;;15.30;99.90;;;;;;5094203;28;20140;-48
2022/08/08 06:18:28;;;;;;;5.78;4.13;;;15.40;99.90;;;;;;5094122;28;20043;-48
2022/08/08 06:20:56;;;;;;;8.00;4.40;;;15.50;99.90;;;;;;5094263;28;20032;-49
2022/08/08 06:23:23;;;;;;;9.73;4.53;;;15.60;99.90;;;;;;5094022;28;20107;-51
2022/08/08 06:26:01;;;;;;;9.90;3.83;;;15.70;99.90;;;;;;5067366;28;20037;-48
2022/08/08 06:28:32;;;;;;;6.38;4.13;;;15.90;99.90;;;;;;5092362;28;20123;-48
2022/08/08 06:31:01;;;;;;;4.65;4.00;;;16.00;99.90;;;;;;5094426;28;20047;-51
2022/08/08 06:33:38;;;;;;;5.38;3.47;;;16.10;99.90;;;;;;5094103;28;20048;-52
2022/08/08 06:36:08;;;;;;;8.00;3.83;;;16.20;99.90;;;;;;5092739;28;20071;-49
2022/08/08 06:38:38;;;;;;;12.02;5.47;;;16.30;99.90;;;;;;5079384;28;20063;-53
2022/08/08 06:41:06;;;;;;;5.43;4.57;;;16.40;99.90;;;;;;5081090;28;20043;-49
2022/08/08 06:43:34;;;;;;;6.45;3.60;;;16.50;99.90;;;;;;5082555;28;20039;-50
2022/08/08 06:46:02;;;;;;;4.22;3.80;;;16.60;99.90;;;;;;5079150;28;20040;-48
2022/08/08 06:48:28;;;;;;;126.05;9.45;;;16.70;99.90;;;;;;5073244;28;20040;-48
2022/08/08 06:50:54;;;;;;;;;;;16.80;99.90;;;;;;5074746;28;20051;-47
2022/08/08 06:53:20;;;;;;;10.10;4.40;;;17.00;99.90;;;;;;5072842;28;19951;-53
2022/08/08 06:55:46;;;;;;;6.03;3.72;;;17.10;99.90;;;;;;5074639;28;20048;-50
2022/08/08 06:58:12;;;;;;;9.60;4.75;;;17.20;99.90;;;;;;5070698;28;20045;-49
2022/08/08 07:00:41;;;;;;;6.38;3.92;;;17.30;99.90;;;;;;5072531;28;20040;-50
2022/08/08 07:03:14;;;;;;;13.40;4.43;;;17.40;99.90;;;;;;5072493;28;20036;-50
2022/08/08 07:05:41;;;;;;;9.13;3.92;;;17.50;99.90;;;;;;5072727;28;20055;-48
2022/08/08 07:08:16;;;;;;;5.53;2.83;;;17.60;99.90;;;;;;5076134;28;20044;-52
2022/08/08 07:10:47;;;;;;;7.60;3.15;;;17.70;99.90;;;;;;5093079;28;20043;-49
2022/08/08 07:13:17;;;;;;;8.82;4.22;;;17.80;99.90;;;;;;5072547;28;20044;-53
2022/08/08 07:16:07;;;;;;;8.40;3.50;;;17.90;99.90;;;;;;5071869;28;20138;-54
2022/08/08 07:18:54;;;;;;;7.50;3.63;;;18.00;99.90;;;;;;5044765;28;20048;-50
2022/08/08 07:21:27;;;;;;;6.90;2.75;;;18.10;99.90;;;;;;5088686;28;20122;-50
2022/08/08 07:24:04;;;;;;;6.75;4.00;;;18.30;99.90;;;;;;5071775;28;20032;-50
2022/08/08 07:26:32;;;;;;;8.85;3.35;;;18.40;99.90;;;;;;5074177;28;20048;-49
2022/08/08 07:28:59;;;;;;;7.47;2.83;;;18.50;99.90;;;;;;5084099;28;20622;-49
2022/08/08 07:31:25;;;;;;;6.65;2.50;;;18.60;99.90;;;;;;5072821;28;20083;-51
2022/08/08 07:33:52;;;;;;;9.02;1.65;;;18.70;99.90;;;;;;5091965;28;20046;-48
2022/08/08 07:36:18;;;;;;;14.63;2.35;;;18.80;99.90;;;;;;5092063;28;20048;-54
2022/08/08 07:38:47;;;;;;;12.00;2.05;;;18.90;99.90;;;;;;5075647;28;20040;-54
2022/08/08 07:41:18;;;;;;;4.80;1.15;;;19.00;99.90;;;;;;5092081;28;20051;-53
2022/08/08 07:43:44;;;;;;;6.95;1.40;;;19.00;99.90;;;;;;5075124;28;20037;-50
2022/08/08 07:46:09;;;;;;;;;;;19.10;99.90;;;;;;5092265;28;20051;-49
2022/08/08 07:48:35;;;;;;;5.55;1.70;;;19.20;99.90;;;;;;5090186;28;19916;-51
2022/08/08 07:51:01;;;;;;;13.25;2.55;;;19.30;99.90;;;;;;5091789;28;20046;-52
2022/08/08 07:53:33;;;;;;;6.13;1.17;;;19.40;99.90;;;;;;5091533;28;20052;-48
2022/08/08 07:56:01;;;;;;;9.00;2.22;;;19.50;99.90;;;;;;5071629;28;20328;-51
2022/08/08 07:58:35;;;;;;;20.33;1.63;;;19.60;99.90;;;;;;5072904;28;20053;-48
2022/08/08 08:01:04;;;;;;;6.82;1.00;;;19.60;99.90;;;;;;5071511;28;20048;-53
2022/08/08 08:03:58;;;;;;;4.88;1.08;;;19.70;99.90;;;;;;5070870;28;20044;-54
2022/08/08 08:06:26;;;;;;;8.93;1.30;;;19.80;99.90;;;;;;5064563;28;20048;-48
2022/08/08 08:09:06;;;;;;;16.88;1.98;;;19.90;99.90;;;;;;5089596;28;20065;-54
2022/08/08 08:11:34;;;;;;;119.50;6.13;;;20.00;99.90;;;;;;5091459;28;20458;-51
2022/08/08 08:14:05;;;;;;;5.00;0.80;;;20.10;99.90;;;;;;5088313;28;20047;-50
2022/08/08 08:16:38;;;;;;;5.22;0.68;;;20.10;99.90;;;;;;5071085;28;20602;-53
2022/08/08 08:19:11;;;;;;;4.68;1.02;;;20.20;99.90;;;;;;5072834;28;20046;-49
2022/08/08 08:21:45;;;;;;;4.53;0.95;;;20.30;99.90;;;;;;5071308;28;20444;-48
2022/08/08 08:24:12;;;;;;;5.53;1.58;;;20.40;99.90;;;;;;5072095;28;20036;-53
2022/08/08 08:26:37;;;;;;;4.95;0.85;;;20.50;99.90;;;;;;5090990;28;20047;-50
2022/08/08 08:29:04;;;;;;;3.42;0.70;;;20.60;99.90;;;;;;5091543;28;20035;-48
2022/08/08 08:31:29;;;;;;;5.28;1.10;;;20.70;99.70;;;;;;5085621;28;20036;-49
2022/08/08 08:33:56;;;;;;;5.05;1.08;;;20.70;99.30;;;;;;5074325;28;20123;-50
2022/08/08 08:36:23;;;;;;;3.92;0.85;;;20.80;99.30;;;;;;5072015;28;20040;-50
2022/08/08 08:38:49;;;;;;;3.88;1.23;;;20.80;99.10;;;;;;5053689;28;20551;-52
2022/08/08 08:41:15;;;;;;;;;;;20.90;99.10;;;;;;5068287;28;20119;-49
2022/08/08 08:43:41;;;;;;;6.70;1.00;;;21.00;98.40;;;;;;5091272;28;19917;-49
2022/08/08 08:46:09;;;;;;;5.32;0.98;;;21.00;98.60;;;;;;5075981;28;20562;-50
2022/08/08 08:48:35;;;;;;;6.40;1.00;;;21.00;98.20;;;;;;5075720;28;20024;-49
2022/08/08 08:51:03;;;;;;;2.58;0.60;;;21.20;98.70;;;;;;5080159;28;20111;-51
2022/08/08 08:53:34;;;;;;;4.47;0.60;;;21.30;98.00;;;;;;5070229;28;20032;-51
2022/08/08 08:56:01;;;;;;;2.47;0.60;;;21.40;98.00;;;;;;5082715;28;20036;-48
2022/08/08 08:58:42;;;;;;;5.43;0.75;;;21.50;97.40;;;;;;5086739;28;20529;-55
2022/08/08 09:01:10;;;;;;;5.57;0.47;;;21.60;96.70;;;;;;5082691;28;20478;-50
2022/08/08 09:03:39;;;;;;;10.90;0.85;;;21.60;97.00;;;;;;5089750;28;20035;-50
2022/08/08 09:06:06;;;;;;;3.00;0.93;;;21.70;96.40;;;;;;5078726;28;20379;-50
2022/08/08 09:08:35;;;;;;;5.32;0.43;;;21.70;96.60;;;;;;5071406;28;20036;-54
2022/08/08 09:11:01;;;;;;;10.75;0.77;;;21.90;96.50;;;;;;5081041;28;20040;-49
2022/08/08 09:13:27;;;;;;;;;;;22.00;96.20;;;;;;5085617;28;20044;-52
2022/08/08 09:15:53;;;;;;;4.10;0.60;;;22.00;95.40;;;;;;5078642;28;19959;-49
2022/08/08 09:18:19;;;;;;;4.93;0.73;;;22.10;95.90;;;;;;5090579;28;20044;-53
2022/08/08 09:20:45;;;;;;;4.35;0.63;;;22.00;95.70;;;;;;5083707;28;20032;-54
2022/08/08 09:23:15;;;;;;;3.75;0.50;;;22.00;95.50;;;;;;5061970;28;20059;-47
2022/08/08 09:25:55;;;;;;;11.23;0.80;;;22.00;95.40;;;;;;5089569;28;20063;-48
2022/08/08 09:28:26;;;;;;;7.45;0.77;;;22.10;95.40;;;;;;5081531;28;20041;-55
2022/08/08 09:30:52;;;;;;;2.35;0.45;;;22.20;95.60;;;;;;5073779;28;20048;-50
2022/08/08 09:33:21;;;;;;;4.45;0.45;;;22.30;95.00;;;;;;5083193;28;20044;-50
2022/08/08 09:35:48;;;;;;;0.95;0.30;;;22.40;94.40;;;;;;5078003;28;20443;-52
2022/08/08 09:38:28;;;;;;;10.93;0.75;;;22.30;94.20;;;;;;5071609;28;20043;-48
2022/08/08 09:41:00;;;;;;;2.88;0.45;;;22.30;93.90;;;;;;5085710;28;20137;-55
2022/08/08 09:43:29;;;;;;;1.63;0.40;;;22.30;94.10;;;;;;5089204;28;20119;-46
2022/08/08 09:46:01;;;;;;;5.88;0.50;;;22.40;93.80;;;;;;5079642;28;20178;-50
2022/08/08 09:48:32;;;;;;;6.53;0.80;;;22.60;93.50;;;;;;5089310;28;20518;-52
2022/08/08 09:50:59;;;;;;;4.90;0.95;;;22.70;93.00;;;;;;5075862;28;20056;-48
2022/08/08 09:53:48;;;;;;;5.50;0.50;;;22.80;92.70;;;;;;5093221;28;20031;-51
2022/08/08 09:56:15;;;;;;;1.70;0.30;;;23.00;91.90;;;;;;5089539;28;20129;-49
2022/08/08 09:58:52;;;;;;;6.40;0.35;;;23.10;91.80;;;;;;5083926;28;20051;-54
2022/08/08 10:01:20;;;;;;;1.65;0.20;;;23.10;90.80;;;;;;5081063;28;20189;-53
2022/08/08 10:03:49;;;;;;;2.55;0.47;;;23.10;91.10;;;;;;5090000;28;20363;-53
2022/08/08 10:06:16;;;;;;;5.60;0.65;;;23.20;91.10;;;;;;5092416;28;20036;-47
2022/08/08 10:08:44;;;;;;;1.42;0.40;;;23.30;91.60;;;;;;5073388;28;20041;-52
2022/08/08 10:11:10;;;;;;;2.65;0.38;;;23.40;91.60;;;;;;5082610;28;20044;-53
2022/08/08 10:13:36;;;;;;;3.13;0.40;;;23.40;91.00;;;;;;5074037;28;20036;-49
2022/08/08 10:16:02;;;;;;;;;;;23.40;90.00;;;;;;5081133;28;20039;-48
2022/08/08 10:18:30;;;;;;;1.27;0.20;;;23.40;88.50;;;;;;5082895;28;19919;-48
2022/08/08 10:21:11;;;;;;;1.60;0.20;;;23.40;90.00;;;;;;5089365;28;20093;-49
2022/08/08 10:23:45;;;;;;;2.70;0.30;;;23.30;89.20;;;;;;5086276;28;20040;-51
2022/08/08 10:26:27;;;;;;;4.18;0.55;;;23.40;90.00;;;;;;5085954;28;20040;-51
2022/08/08 10:28:55;;;;;;;2.08;0.30;;;23.50;88.90;;;;;;5094909;28;20397;-48
2022/08/08 10:34:14;;;;;;;1.02;0.30;;;23.50;90.10;;;;;;5088146;28;20044;-51
2022/08/08 10:36:41;;;;;;;3.25;0.30;;;23.50;90.40;;;;;;5081778;28;20086;-51
2022/08/08 10:39:08;;;;;;;5.18;0.40;;;23.50;90.50;;;;;;5081942;28;20434;-48
2022/08/08 10:41:36;;;;;;;5.47;0.60;;;23.50;90.40;;;;;;5074002;28;20044;-50
2022/08/08 10:44:03;;;;;;;6.75;0.32;;;23.40;89.00;;;;;;5076433;28;20035;-48
2022/08/08 10:46:30;;;;;;;2.90;0.30;;;23.20;88.60;;;;;;5087132;28;20117;-53
2022/08/08 10:48:57;;;;;;;6.28;0.50;;;23.10;89.40;;;;;;5064334;28;20238;-46
2022/08/08 10:51:28;;;;;;;1.27;0.38;;;23.10;89.20;;;;;;5084416;28;20046;-54
2022/08/08 10:53:54;;;;;;;5.78;0.50;;;23.10;88.10;;;;;;5080630;28;20052;-47
2022/08/08 10:56:20;;;;;;;;;;;23.10;88.60;;;;;;5081161;28;20034;-52
2022/08/08 10:58:46;;;;;;;3.30;0.47;;;23.10;88.00;;;;;;5075675;28;19924;-53
2022/08/08 11:01:13;;;;;;;4.45;0.38;;;23.10;89.50;;;;;;5091382;28;20044;-49
2022/08/08 11:03:44;;;;;;;2.28;0.50;;;23.10;90.10;;;;;;5092512;28;20047;-53
2022/08/08 11:06:11;;;;;;;5.03;0.60;;;23.10;90.10;;;;;;5072497;28;20078;-49
2022/08/08 11:08:38;;;;;;;6.22;0.35;;;23.10;89.40;;;;;;5072518;28;20559;-48
2022/08/08 11:11:09;;;;;;;3.42;0.40;;;23.10;88.90;;;;;;5082004;28;20044;-48
2022/08/08 11:13:42;;;;;;;2.33;0.28;;;23.10;89.30;;;;;;5073908;28;20106;-49
2022/08/08 11:16:16;;;;;;;2.00;0.20;;;23.10;89.00;;;;;;5090916;28;20089;-49
2022/08/08 11:18:43;;;;;;;5.40;0.50;;;23.10;88.40;;;;;;5092634;28;20472;-49
2022/08/08 11:21:09;;;;;;;4.55;0.50;;;23.10;88.90;;;;;;5077562;28;20058;-49
2022/08/08 11:23:39;;;;;;;5.70;0.30;;;23.10;89.40;;;;;;5081804;28;20486;-50
2022/08/08 11:26:05;;;;;;;1.20;0.22;;;23.20;89.30;;;;;;5073293;28;20080;-49
2022/08/08 11:28:35;;;;;;;3.20;0.68;;;23.40;88.60;;;;;;5072166;28;20379;-49
2022/08/08 11:31:02;;;;;;;1.63;0.43;;;23.50;86.90;;;;;;5088609;28;20083;-51
2022/08/08 11:33:31;;;;;;;2.63;0.20;;;23.50;86.80;;;;;;5092023;28;20036;-55
2022/08/08 11:35:56;;;;;;;6.47;0.43;;;23.50;87.30;;;;;;5090161;28;20044;-55
2022/08/08 11:38:24;;;;;;;2.97;0.65;;;23.60;86.90;;;;;;5091899;28;20088;-55
2022/08/08 11:40:51;;;;;;;3.60;0.55;;;23.70;86.40;;;;;;5089881;28;20040;-51
2022/08/08 11:43:17;;;;;;;1.92;0.20;;;23.80;86.50;;;;;;5091894;28;20055;-53
2022/08/08 11:45:44;;;;;;;23.58;1.20;;;24.00;85.60;;;;;;5088359;28;20031;-55
2022/08/08 11:48:12;;;;;;;1.10;0.50;;;24.20;86.50;;;;;;5092319;28;20032;-51
2022/08/08 11:50:38;;;;;;;4.57;0.50;;;24.30;85.90;;;;;;5089935;28;20083;-54
2022/08/08 11:53:04;;;;;;;3.28;0.20;;;24.40;85.40;;;;;;5091836;28;20409;-53
2022/08/08 11:55:30;;;;;;;2.20;0.20;;;24.40;83.20;;;;;;5082732;28;20041;-54
2022/08/08 11:58:08;;;;;;;2.97;0.40;;;24.30;82.30;;;;;;5071666;28;20115;-53
2022/08/08 12:00:46;;;;;;;1.02;0.20;;;24.30;81.80;;;;;;5080425;28;20406;-52
2022/08/08 12:03:26;;;;;;;2.13;0.20;;;24.30;80.50;;;;;;5091004;28;20394;-54
2022/08/08 12:05:52;;;;;;;1.48;0.10;;;24.30;79.40;;;;;;5080881;28;20037;-51
2022/08/08 12:08:32;;;;;;;1.20;0.20;;;24.20;79.90;;;;;;5071565;28;20586;-50
2022/08/08 12:11:01;;;;;;;2.33;0.40;;;24.10;79.30;;;;;;5082065;28;20137;-53
2022/08/08 12:13:27;;;;;;;4.85;0.50;;;24.00;81.40;;;;;;5091287;28;20040;-50
2022/08/08 12:15:54;;;;;;;4.13;0.45;;;24.00;82.30;;;;;;5081309;28;20396;-52
2022/08/08 12:18:21;;;;;;;1.95;0.20;;;23.90;83.00;;;;;;5056440;28;20052;-53
2022/08/08 12:20:48;;;;;;;6.22;0.55;;;23.80;82.50;;;;;;5083170;28;20059;-52
2022/08/08 12:23:15;;;;;;;4.75;0.85;;;23.70;83.60;;;;;;5070933;28;20036;-53
2022/08/08 12:25:41;;;;;;;1.58;0.30;;;23.70;83.20;;;;;;5080729;28;20081;-53
2022/08/08 12:28:13;;;;;;;4.88;0.50;;;23.70;83.60;;;;;;5090950;28;20050;-51
2022/08/08 12:30:40;;;;;;;3.17;0.25;;;23.70;83.70;;;;;;5089400;28;20471;-51
2022/08/08 12:33:34;;;;;;;3.88;0.20;;;23.80;83.60;;;;;;5091174;28;20044;-50
2022/08/08 12:36:10;;;;;;;4.97;0.47;;;23.80;83.30;;;;;;5090884;28;20047;-54
2022/08/08 12:38:52;;;;;;;2.85;0.20;;;23.90;81.60;;;;;;5072413;28;20146;-50
2022/08/08 12:41:21;;;;;;;3.45;0.70;;;24.00;81.20;;;;;;5084389;28;20031;-53
2022/08/08 12:43:47;;;;;;;2.15;0.20;;;24.20;81.90;;;;;;5069117;28;20125;-54
2022/08/08 12:46:21;;;;;;;1.55;0.10;;;24.20;80.80;;;;;;5080223;28;20044;-54
2022/08/08 12:48:57;;;;;;;0.60;0.10;;;24.30;80.70;;;;;;5070828;28;20490;-48
2022/08/08 12:51:23;;;;;;;4.45;0.20;;;24.30;79.90;;;;;;5080137;28;20520;-52
2022/08/08 12:54:00;;;;;;;1.20;0.10;;;24.40;80.50;;;;;;5084271;28;20051;-52
2022/08/08 12:56:34;;;;;;;2.65;0.35;;;24.50;80.60;;;;;;5080384;28;20125;-50
2022/08/08 12:59:00;;;;;;;0.80;0.17;;;24.60;81.20;;;;;;5087783;28;20044;-54
2022/08/08 13:01:36;;;;;;;0.52;0.20;;;24.60;81.30;;;;;;5080757;28;20387;-49
2022/08/08 13:04:16;;;;;;;1.75;0.32;;;24.50;81.30;;;;;;5070501;28;20144;-53
2022/08/08 13:06:52;;;;;;;3.53;0.13;;;24.40;82.00;;;;;;5081268;28;20158;-54
2022/08/08 13:09:28;;;;;;;1.23;0.30;;;24.30;81.70;;;;;;5072750;28;20109;-50
2022/08/08 13:11:54;;;;;;;1.30;0.20;;;24.30;81.70;;;;;;5074933;28;20478;-50
2022/08/08 13:14:19;;;;;;;0.80;0.20;;;24.20;82.70;;;;;;5069746;28;20047;-48
2022/08/08 13:16:45;;;;;;;3.22;0.52;;;24.20;82.30;;;;;;5080629;28;20043;-52
2022/08/08 13:19:11;;;;;;;0.75;0.10;;;24.30;81.90;;;;;;5076817;28;20040;-54
2022/08/08 13:21:41;;;;;;;1.63;0.20;;;24.30;81.00;;;;;;5073872;28;20118;-49